Hlavní strana
METAR-TAF:

METAR-TAF

Letiště :

Letiště Plzeň Líně

Plzeň, Česká republika

zeměpisná šířka: 49-40-31N, zeměpisná délka: 13-16-29E, výška: 362 m

Aktuální stav počasí

Zpráva byla vytvořena před 34 minutami, v 20:00 UTC
Západní vítr 6 kt, proměnlivý mezi jihozápadním a severoseverozápadním
Teplota 3°C
Vlhkost vzduchu 75%
Tlak 1018 hPa
Viditelnost 10 km a více
Skoro jasno ve výšce 2100 ft
Zataženo ve výšce 6600 ft

METAR: LKLN 112000Z AUTO 26006KT 220V330 9999 FEW021 OVC066 03/M01 Q1018

Čas: 21:34 (20:34 UTC)


TAF: chybějící

Stav a předpovědi počasí z více než 4 000 letišť (zprávy METAR a TAF).

Červené a žluté tečky na mapě představují dostupné meteorologické stanice.

Když kurzor umístíte na tečku, zobrazí se název stanice.

Pak kliknutím zobrazíte stav a předpověď počasí.

Chcete-li změnit mapu, kliknutím na zelené tlačítko se znaménkem +mapu přiblížíte, kliknutím na zelené tlačítko se znaménkem – mapu oddálíte a kliknutím na zelené šipky přejdete na sousední mapy.


METAR-TAF: